sensor_id;sensor_type;location;lat;lon;timestamp;temperature;humidity
21805;DHT22;11064;47.102;15.452;2023-12-29T00:02:04;2.20;99.90
21805;DHT22;11064;47.102;15.452;2023-12-29T00:04:31;2.20;99.90
21805;DHT22;11064;47.102;15.452;2023-12-29T00:06:57;2.30;99.90
21805;DHT22;11064;47.102;15.452;2023-12-29T00:09:23;2.30;99.90
21805;DHT22;11064;47.102;15.452;2023-12-29T00:11:51;2.30;99.90
21805;DHT22;11064;47.102;15.452;2023-12-29T00:14:18;2.40;99.90
21805;DHT22;11064;47.102;15.452;2023-12-29T00:16:44;2.40;99.90
21805;DHT22;11064;47.102;15.452;2023-12-29T00:19:10;2.40;99.90
21805;DHT22;11064;47.102;15.452;2023-12-29T00:21:36;2.30;99.90
21805;DHT22;11064;47.102;15.452;2023-12-29T00:24:02;2.20;99.90
21805;DHT22;11064;47.102;15.452;2023-12-29T00:26:29;2.10;99.90
21805;DHT22;11064;47.102;15.452;2023-12-29T00:28:55;2.10;99.90
21805;DHT22;11064;47.102;15.452;2023-12-29T00:31:21;2.00;99.90
21805;DHT22;11064;47.102;15.452;2023-12-29T00:33:46;2.10;99.90
21805;DHT22;11064;47.102;15.452;2023-12-29T00:36:16;2.10;99.90
21805;DHT22;11064;47.102;15.452;2023-12-29T00:38:43;2.10;99.90
21805;DHT22;11064;47.102;15.452;2023-12-29T00:41:09;2.00;99.90
21805;DHT22;11064;47.102;15.452;2023-12-29T00:43:35;2.00;99.90
21805;DHT22;11064;47.102;15.452;2023-12-29T00:46:02;2.20;99.90
21805;DHT22;11064;47.102;15.452;2023-12-29T00:48:29;2.10;99.90
21805;DHT22;11064;47.102;15.452;2023-12-29T00:50:55;2.10;99.90
21805;DHT22;11064;47.102;15.452;2023-12-29T00:53:21;2.10;99.90
21805;DHT22;11064;47.102;15.452;2023-12-29T00:55:46;2.00;99.90
21805;DHT22;11064;47.102;15.452;2023-12-29T00:58:12;2.00;99.90
21805;DHT22;11064;47.102;15.452;2023-12-29T01:00:38;2.00;99.90
21805;DHT22;11064;47.102;15.452;2023-12-29T01:03:04;1.90;99.90
21805;DHT22;11064;47.102;15.452;2023-12-29T01:05:30;1.90;99.90
21805;DHT22;11064;47.102;15.452;2023-12-29T01:07:56;1.90;99.90
21805;DHT22;11064;47.102;15.452;2023-12-29T01:10:22;1.90;99.90
21805;DHT22;11064;47.102;15.452;2023-12-29T01:12:47;2.00;99.90
21805;DHT22;11064;47.102;15.452;2023-12-29T01:15:13;2.00;99.90
21805;DHT22;11064;47.102;15.452;2023-12-29T01:17:40;2.00;99.90
21805;DHT22;11064;47.102;15.452;2023-12-29T01:20:07;2.00;99.90
21805;DHT22;11064;47.102;15.452;2023-12-29T01:22:33;2.00;99.90
21805;DHT22;11064;47.102;15.452;2023-12-29T01:24:59;2.00;99.90
21805;DHT22;11064;47.102;15.452;2023-12-29T01:27:26;2.00;99.90
21805;DHT22;11064;47.102;15.452;2023-12-29T01:29:52;1.90;99.90
21805;DHT22;11064;47.102;15.452;2023-12-29T01:32:19;2.00;99.90
21805;DHT22;11064;47.102;15.452;2023-12-29T01:34:45;1.90;99.90
21805;DHT22;11064;47.102;15.452;2023-12-29T01:37:10;2.00;99.90
21805;DHT22;11064;47.102;15.452;2023-12-29T01:39:36;2.00;99.90
21805;DHT22;11064;47.102;15.452;2023-12-29T01:42:02;2.00;99.90
21805;DHT22;11064;47.102;15.452;2023-12-29T01:44:28;2.10;99.90
21805;DHT22;11064;47.102;15.452;2023-12-29T01:46:56;2.10;99.90
21805;DHT22;11064;47.102;15.452;2023-12-29T01:49:23;2.20;99.90
21805;DHT22;11064;47.102;15.452;2023-12-29T01:52:00;2.30;99.90
21805;DHT22;11064;47.102;15.452;2023-12-29T01:54:31;2.30;99.90
21805;DHT22;11064;47.102;15.452;2023-12-29T01:57:00;2.40;99.90
21805;DHT22;11064;47.102;15.452;2023-12-29T01:59:28;2.40;99.90
21805;DHT22;11064;47.102;15.452;2023-12-29T02:01:55;2.40;99.90
21805;DHT22;11064;47.102;15.452;2023-12-29T02:04:28;2.40;99.90
21805;DHT22;11064;47.102;15.452;2023-12-29T02:06:56;2.40;99.90
21805;DHT22;11064;47.102;15.452;2023-12-29T02:09:22;2.30;99.90
21805;DHT22;11064;47.102;15.452;2023-12-29T02:11:48;2.30;99.90
21805;DHT22;11064;47.102;15.452;2023-12-29T02:14:15;2.30;99.90
21805;DHT22;11064;47.102;15.452;2023-12-29T02:19:52;2.20;99.90
21805;DHT22;11064;47.102;15.452;2023-12-29T02:22:18;2.10;99.90
21805;DHT22;11064;47.102;15.452;2023-12-29T02:24:53;2.10;99.90
21805;DHT22;11064;47.102;15.452;2023-12-29T02:30:29;2.10;99.90
21805;DHT22;11064;47.102;15.452;2023-12-29T02:33:00;2.10;99.90
21805;DHT22;11064;47.102;15.452;2023-12-29T02:35:34;2.10;99.90
21805;DHT22;11064;47.102;15.452;2023-12-29T02:38:02;2.10;99.90
21805;DHT22;11064;47.102;15.452;2023-12-29T02:40:28;2.10;99.90
21805;DHT22;11064;47.102;15.452;2023-12-29T02:42:54;2.00;99.90
21805;DHT22;11064;47.102;15.452;2023-12-29T02:45:20;2.00;99.90
21805;DHT22;11064;47.102;15.452;2023-12-29T02:47:47;2.00;99.90
21805;DHT22;11064;47.102;15.452;2023-12-29T02:50:14;2.00;99.90
21805;DHT22;11064;47.102;15.452;2023-12-29T02:52:39;2.00;99.90
21805;DHT22;11064;47.102;15.452;2023-12-29T02:55:05;1.90;99.90
21805;DHT22;11064;47.102;15.452;2023-12-29T02:57:31;2.00;99.90
21805;DHT22;11064;47.102;15.452;2023-12-29T02:59:57;2.00;99.90
21805;DHT22;11064;47.102;15.452;2023-12-29T03:02:24;1.90;99.90
21805;DHT22;11064;47.102;15.452;2023-12-29T03:04:50;1.90;99.90
21805;DHT22;11064;47.102;15.452;2023-12-29T03:07:16;1.80;99.90
21805;DHT22;11064;47.102;15.452;2023-12-29T03:09:42;1.80;99.90
21805;DHT22;11064;47.102;15.452;2023-12-29T03:12:08;1.80;99.90
21805;DHT22;11064;47.102;15.452;2023-12-29T03:14:35;1.80;99.90
21805;DHT22;11064;47.102;15.452;2023-12-29T03:17:00;1.80;99.90
21805;DHT22;11064;47.102;15.452;2023-12-29T03:19:26;1.80;99.90
21805;DHT22;11064;47.102;15.452;2023-12-29T03:21:53;1.90;99.90
21805;DHT22;11064;47.102;15.452;2023-12-29T03:24:20;2.00;99.90
21805;DHT22;11064;47.102;15.452;2023-12-29T03:26:45;2.00;99.90
21805;DHT22;11064;47.102;15.452;2023-12-29T03:29:11;2.10;99.90
21805;DHT22;11064;47.102;15.452;2023-12-29T03:31:37;2.10;99.90
21805;DHT22;11064;47.102;15.452;2023-12-29T03:34:05;2.00;99.90
21805;DHT22;11064;47.102;15.452;2023-12-29T03:36:30;2.00;99.90
21805;DHT22;11064;47.102;15.452;2023-12-29T03:38:56;1.90;99.90
21805;DHT22;11064;47.102;15.452;2023-12-29T03:41:22;1.90;99.90
21805;DHT22;11064;47.102;15.452;2023-12-29T03:43:48;1.90;99.90
21805;DHT22;11064;47.102;15.452;2023-12-29T03:46:21;1.90;99.90
21805;DHT22;11064;47.102;15.452;2023-12-29T03:48:47;1.90;99.90
21805;DHT22;11064;47.102;15.452;2023-12-29T03:51:14;2.00;99.90
21805;DHT22;11064;47.102;15.452;2023-12-29T03:53:40;2.00;99.90
21805;DHT22;11064;47.102;15.452;2023-12-29T03:56:07;1.90;99.90
21805;DHT22;11064;47.102;15.452;2023-12-29T03:58:34;1.80;99.90
21805;DHT22;11064;47.102;15.452;2023-12-29T04:01:01;1.70;99.90
21805;DHT22;11064;47.102;15.452;2023-12-29T04:03:27;1.70;99.90
21805;DHT22;11064;47.102;15.452;2023-12-29T04:05:53;1.60;99.90
21805;DHT22;11064;47.102;15.452;2023-12-29T04:08:19;1.60;99.90
21805;DHT22;11064;47.102;15.452;2023-12-29T04:10:45;1.70;99.90
21805;DHT22;11064;47.102;15.452;2023-12-29T04:13:11;1.70;99.90
21805;DHT22;11064;47.102;15.452;2023-12-29T04:15:36;1.70;99.90
21805;DHT22;11064;47.102;15.452;2023-12-29T04:18:02;1.80;99.90
21805;DHT22;11064;47.102;15.452;2023-12-29T04:20:28;1.80;99.90
21805;DHT22;11064;47.102;15.452;2023-12-29T04:22:54;1.80;99.90
21805;DHT22;11064;47.102;15.452;2023-12-29T04:25:20;1.70;99.90
21805;DHT22;11064;47.102;15.452;2023-12-29T04:27:46;1.60;99.90
21805;DHT22;11064;47.102;15.452;2023-12-29T04:30:12;1.60;99.90
21805;DHT22;11064;47.102;15.452;2023-12-29T04:32:38;1.50;99.90
21805;DHT22;11064;47.102;15.452;2023-12-29T04:35:04;1.40;99.90
21805;DHT22;11064;47.102;15.452;2023-12-29T04:37:30;1.40;99.90
21805;DHT22;11064;47.102;15.452;2023-12-29T04:39:56;1.50;99.90
21805;DHT22;11064;47.102;15.452;2023-12-29T04:42:22;1.60;99.90
21805;DHT22;11064;47.102;15.452;2023-12-29T04:44:48;1.60;99.90
21805;DHT22;11064;47.102;15.452;2023-12-29T05:02:46;1.80;99.90
21805;DHT22;11064;47.102;15.452;2023-12-29T05:05:11;1.70;99.90
21805;DHT22;11064;47.102;15.452;2023-12-29T05:07:37;1.60;99.90
21805;DHT22;11064;47.102;15.452;2023-12-29T05:10:03;1.50;99.90
21805;DHT22;11064;47.102;15.452;2023-12-29T05:12:29;1.40;99.90
21805;DHT22;11064;47.102;15.452;2023-12-29T05:14:55;1.50;99.90
21805;DHT22;11064;47.102;15.452;2023-12-29T05:17:21;1.60;99.90
21805;DHT22;11064;47.102;15.452;2023-12-29T05:19:47;1.70;99.90
21805;DHT22;11064;47.102;15.452;2023-12-29T05:22:13;1.70;99.90
21805;DHT22;11064;47.102;15.452;2023-12-29T05:24:43;1.70;99.90
21805;DHT22;11064;47.102;15.452;2023-12-29T05:27:11;1.70;99.90
21805;DHT22;11064;47.102;15.452;2023-12-29T05:29:37;1.50;99.90
21805;DHT22;11064;47.102;15.452;2023-12-29T05:32:03;1.50;99.90
21805;DHT22;11064;47.102;15.452;2023-12-29T05:34:29;1.50;99.90
21805;DHT22;11064;47.102;15.452;2023-12-29T05:36:55;1.50;99.90
21805;DHT22;11064;47.102;15.452;2023-12-29T05:39:21;1.40;99.90
21805;DHT22;11064;47.102;15.452;2023-12-29T05:41:47;1.40;99.90
21805;DHT22;11064;47.102;15.452;2023-12-29T05:44:13;1.50;99.90
21805;DHT22;11064;47.102;15.452;2023-12-29T05:46:38;1.50;99.90
21805;DHT22;11064;47.102;15.452;2023-12-29T05:49:04;1.50;99.90
21805;DHT22;11064;47.102;15.452;2023-12-29T05:51:30;1.50;99.90
21805;DHT22;11064;47.102;15.452;2023-12-29T05:53:56;1.50;99.90
21805;DHT22;11064;47.102;15.452;2023-12-29T05:56:22;1.50;99.90
21805;DHT22;11064;47.102;15.452;2023-12-29T05:58:48;1.40;99.90
21805;DHT22;11064;47.102;15.452;2023-12-29T06:01:13;1.40;99.90
21805;DHT22;11064;47.102;15.452;2023-12-29T06:03:39;1.50;99.90
21805;DHT22;11064;47.102;15.452;2023-12-29T06:06:05;1.60;99.90
21805;DHT22;11064;47.102;15.452;2023-12-29T06:08:31;1.60;99.90
21805;DHT22;11064;47.102;15.452;2023-12-29T06:10:57;1.50;99.90
21805;DHT22;11064;47.102;15.452;2023-12-29T06:13:23;1.50;99.90
21805;DHT22;11064;47.102;15.452;2023-12-29T06:15:49;1.50;99.90
21805;DHT22;11064;47.102;15.452;2023-12-29T06:18:14;1.60;99.90
21805;DHT22;11064;47.102;15.452;2023-12-29T06:20:40;1.50;99.90
21805;DHT22;11064;47.102;15.452;2023-12-29T06:23:06;1.60;99.90
21805;DHT22;11064;47.102;15.452;2023-12-29T06:25:32;1.50;99.90
21805;DHT22;11064;47.102;15.452;2023-12-29T06:28:00;1.60;99.90
21805;DHT22;11064;47.102;15.452;2023-12-29T06:30:26;1.60;99.90
21805;DHT22;11064;47.102;15.452;2023-12-29T06:32:52;1.60;99.90
21805;DHT22;11064;47.102;15.452;2023-12-29T06:35:17;1.60;99.90
21805;DHT22;11064;47.102;15.452;2023-12-29T06:37:43;1.60;99.90
21805;DHT22;11064;47.102;15.452;2023-12-29T06:40:09;1.70;99.90
21805;DHT22;11064;47.102;15.452;2023-12-29T06:42:35;1.80;99.90
21805;DHT22;11064;47.102;15.452;2023-12-29T06:45:02;1.80;99.90
21805;DHT22;11064;47.102;15.452;2023-12-29T06:47:28;1.80;99.90
21805;DHT22;11064;47.102;15.452;2023-12-29T06:49:54;1.80;99.90
21805;DHT22;11064;47.102;15.452;2023-12-29T06:52:19;1.90;99.90
21805;DHT22;11064;47.102;15.452;2023-12-29T06:54:45;2.00;99.90
21805;DHT22;11064;47.102;15.452;2023-12-29T06:57:11;2.00;99.90
21805;DHT22;11064;47.102;15.452;2023-12-29T06:59:40;2.00;99.90
21805;DHT22;11064;47.102;15.452;2023-12-29T07:02:06;2.00;99.90
21805;DHT22;11064;47.102;15.452;2023-12-29T07:04:32;2.00;99.90
21805;DHT22;11064;47.102;15.452;2023-12-29T07:07:00;2.10;99.90
21805;DHT22;11064;47.102;15.452;2023-12-29T07:09:27;2.10;99.90
21805;DHT22;11064;47.102;15.452;2023-12-29T07:11:53;2.10;99.90
21805;DHT22;11064;47.102;15.452;2023-12-29T07:14:19;2.10;99.90
21805;DHT22;11064;47.102;15.452;2023-12-29T07:16:45;2.10;99.90
21805;DHT22;11064;47.102;15.452;2023-12-29T07:19:11;2.20;99.90
21805;DHT22;11064;47.102;15.452;2023-12-29T07:21:37;2.20;99.90
21805;DHT22;11064;47.102;15.452;2023-12-29T07:24:03;2.20;99.90
21805;DHT22;11064;47.102;15.452;2023-12-29T07:26:28;2.20;99.90
21805;DHT22;11064;47.102;15.452;2023-12-29T07:28:54;2.20;99.90
21805;DHT22;11064;47.102;15.452;2023-12-29T07:31:21;2.30;99.90
21805;DHT22;11064;47.102;15.452;2023-12-29T07:33:47;2.30;99.90
21805;DHT22;11064;47.102;15.452;2023-12-29T07:36:13;2.30;99.90
21805;DHT22;11064;47.102;15.452;2023-12-29T07:38:39;2.30;99.90
21805;DHT22;11064;47.102;15.452;2023-12-29T07:41:05;2.30;99.90
21805;DHT22;11064;47.102;15.452;2023-12-29T07:43:31;2.30;99.90
21805;DHT22;11064;47.102;15.452;2023-12-29T07:45:57;2.30;99.90
21805;DHT22;11064;47.102;15.452;2023-12-29T07:48:23;2.30;99.90
21805;DHT22;11064;47.102;15.452;2023-12-29T07:50:49;2.40;99.90
21805;DHT22;11064;47.102;15.452;2023-12-29T07:53:15;2.50;99.90
21805;DHT22;11064;47.102;15.452;2023-12-29T07:55:42;2.60;99.90
21805;DHT22;11064;47.102;15.452;2023-12-29T07:58:09;2.60;99.90
21805;DHT22;11064;47.102;15.452;2023-12-29T08:00:36;2.70;99.90
21805;DHT22;11064;47.102;15.452;2023-12-29T08:03:03;2.70;99.90
21805;DHT22;11064;47.102;15.452;2023-12-29T08:05:30;2.80;99.90
21805;DHT22;11064;47.102;15.452;2023-12-29T08:07:56;2.90;99.90
21805;DHT22;11064;47.102;15.452;2023-12-29T08:10:21;2.90;99.90
21805;DHT22;11064;47.102;15.452;2023-12-29T08:12:47;2.90;99.90
21805;DHT22;11064;47.102;15.452;2023-12-29T08:15:13;3.00;99.90
21805;DHT22;11064;47.102;15.452;2023-12-29T08:17:39;3.00;99.90
21805;DHT22;11064;47.102;15.452;2023-12-29T08:20:06;3.10;99.90
21805;DHT22;11064;47.102;15.452;2023-12-29T08:22:32;3.10;99.90
21805;DHT22;11064;47.102;15.452;2023-12-29T08:24:58;3.20;99.90
21805;DHT22;11064;47.102;15.452;2023-12-29T08:27:25;3.40;99.90
21805;DHT22;11064;47.102;15.452;2023-12-29T08:29:53;3.40;99.90
21805;DHT22;11064;47.102;15.452;2023-12-29T08:32:22;3.50;99.90
21805;DHT22;11064;47.102;15.452;2023-12-29T08:34:48;3.60;99.90
21805;DHT22;11064;47.102;15.452;2023-12-29T08:37:14;3.70;99.90
21805;DHT22;11064;47.102;15.452;2023-12-29T08:39:48;3.80;99.90
21805;DHT22;11064;47.102;15.452;2023-12-29T08:42:14;3.80;99.90
21805;DHT22;11064;47.102;15.452;2023-12-29T08:44:40;3.90;99.90
21805;DHT22;11064;47.102;15.452;2023-12-29T08:47:06;3.90;99.90
21805;DHT22;11064;47.102;15.452;2023-12-29T08:49:37;3.90;99.90
21805;DHT22;11064;47.102;15.452;2023-12-29T08:52:04;3.90;99.90
21805;DHT22;11064;47.102;15.452;2023-12-29T08:54:29;3.90;99.90
21805;DHT22;11064;47.102;15.452;2023-12-29T08:56:55;4.00;99.90
21805;DHT22;11064;47.102;15.452;2023-12-29T08:59:21;4.00;99.90
21805;DHT22;11064;47.102;15.452;2023-12-29T09:01:47;4.10;99.90
21805;DHT22;11064;47.102;15.452;2023-12-29T09:04:13;4.10;99.90
21805;DHT22;11064;47.102;15.452;2023-12-29T09:06:39;4.30;99.90
21805;DHT22;11064;47.102;15.452;2023-12-29T09:09:04;4.30;99.90
21805;DHT22;11064;47.102;15.452;2023-12-29T09:11:30;4.40;99.90
21805;DHT22;11064;47.102;15.452;2023-12-29T09:13:56;4.50;99.90
21805;DHT22;11064;47.102;15.452;2023-12-29T09:16:22;4.60;99.90
21805;DHT22;11064;47.102;15.452;2023-12-29T09:18:47;4.60;99.90
21805;DHT22;11064;47.102;15.452;2023-12-29T09:21:13;4.70;99.90
21805;DHT22;11064;47.102;15.452;2023-12-29T09:23:39;4.80;99.90
21805;DHT22;11064;47.102;15.452;2023-12-29T09:26:06;4.90;99.90
21805;DHT22;11064;47.102;15.452;2023-12-29T09:28:32;5.00;99.90
21805;DHT22;11064;47.102;15.452;2023-12-29T09:30:58;5.10;99.90
21805;DHT22;11064;47.102;15.452;2023-12-29T09:33:27;5.20;99.90
21805;DHT22;11064;47.102;15.452;2023-12-29T09:35:53;5.40;99.90
21805;DHT22;11064;47.102;15.452;2023-12-29T09:38:19;5.40;99.90
21805;DHT22;11064;47.102;15.452;2023-12-29T09:40:46;5.50;99.90
21805;DHT22;11064;47.102;15.452;2023-12-29T09:43:13;5.50;99.90
21805;DHT22;11064;47.102;15.452;2023-12-29T09:45:42;5.60;99.90
21805;DHT22;11064;47.102;15.452;2023-12-29T09:48:11;5.60;99.90
21805;DHT22;11064;47.102;15.452;2023-12-29T09:50:39;5.60;99.90
21805;DHT22;11064;47.102;15.452;2023-12-29T09:53:06;5.70;99.90
21805;DHT22;11064;47.102;15.452;2023-12-29T09:55:33;5.70;99.90
21805;DHT22;11064;47.102;15.452;2023-12-29T09:57:59;5.70;99.90
21805;DHT22;11064;47.102;15.452;2023-12-29T10:00:27;5.80;99.90
21805;DHT22;11064;47.102;15.452;2023-12-29T10:02:53;5.80;99.90
21805;DHT22;11064;47.102;15.452;2023-12-29T10:05:19;5.90;99.90
21805;DHT22;11064;47.102;15.452;2023-12-29T10:07:46;6.00;99.90
21805;DHT22;11064;47.102;15.452;2023-12-29T10:10:15;6.10;99.90
21805;DHT22;11064;47.102;15.452;2023-12-29T10:12:43;6.10;99.90
21805;DHT22;11064;47.102;15.452;2023-12-29T10:15:17;6.20;99.90
21805;DHT22;11064;47.102;15.452;2023-12-29T10:18:00;6.20;99.90
21805;DHT22;11064;47.102;15.452;2023-12-29T10:20:56;6.30;99.90
21805;DHT22;11064;47.102;15.452;2023-12-29T10:23:40;6.40;99.90
21805;DHT22;11064;47.102;15.452;2023-12-29T10:26:11;6.50;99.90
21805;DHT22;11064;47.102;15.452;2023-12-29T10:28:37;6.60;99.90
21805;DHT22;11064;47.102;15.452;2023-12-29T10:31:05;6.70;99.40
21805;DHT22;11064;47.102;15.452;2023-12-29T10:33:30;6.60;99.00
21805;DHT22;11064;47.102;15.452;2023-12-29T10:35:59;6.70;98.80
21805;DHT22;11064;47.102;15.452;2023-12-29T10:38:29;6.80;98.50
21805;DHT22;11064;47.102;15.452;2023-12-29T10:41:11;6.80;98.50
21805;DHT22;11064;47.102;15.452;2023-12-29T10:43:41;6.80;98.20
21805;DHT22;11064;47.102;15.452;2023-12-29T10:46:09;6.90;98.10
21805;DHT22;11064;47.102;15.452;2023-12-29T10:48:36;6.90;97.80
21805;DHT22;11064;47.102;15.452;2023-12-29T10:51:06;7.00;97.70
21805;DHT22;11064;47.102;15.452;2023-12-29T10:53:33;7.00;97.50
21805;DHT22;11064;47.102;15.452;2023-12-29T10:55:59;7.00;97.40
21805;DHT22;11064;47.102;15.452;2023-12-29T10:58:29;7.00;97.30
21805;DHT22;11064;47.102;15.452;2023-12-29T11:00:59;7.10;97.00
21805;DHT22;11064;47.102;15.452;2023-12-29T11:03:28;7.20;97.00
21805;DHT22;11064;47.102;15.452;2023-12-29T11:06:00;7.20;96.80
21805;DHT22;11064;47.102;15.452;2023-12-29T11:08:26;7.20;96.70
21805;DHT22;11064;47.102;15.452;2023-12-29T11:10:51;7.20;96.60
21805;DHT22;11064;47.102;15.452;2023-12-29T11:13:20;7.30;96.40
21805;DHT22;11064;47.102;15.452;2023-12-29T11:15:47;7.40;96.40
21805;DHT22;11064;47.102;15.452;2023-12-29T11:18:17;7.50;96.10
21805;DHT22;11064;47.102;15.452;2023-12-29T11:20:44;7.50;95.80
21805;DHT22;11064;47.102;15.452;2023-12-29T11:23:12;7.60;95.50
21805;DHT22;11064;47.102;15.452;2023-12-29T11:25:44;7.70;95.30
21805;DHT22;11064;47.102;15.452;2023-12-29T11:28:14;7.70;95.00
21805;DHT22;11064;47.102;15.452;2023-12-29T11:30:40;7.80;94.70
21805;DHT22;11064;47.102;15.452;2023-12-29T11:33:12;7.90;94.70
21805;DHT22;11064;47.102;15.452;2023-12-29T11:35:49;7.90;94.30
21805;DHT22;11064;47.102;15.452;2023-12-29T11:41:23;8.00;93.90
21805;DHT22;11064;47.102;15.452;2023-12-29T11:43:57;8.10;94.00
21805;DHT22;11064;47.102;15.452;2023-12-29T11:49:03;8.10;94.30
21805;DHT22;11064;47.102;15.452;2023-12-29T11:51:40;8.10;93.90
21805;DHT22;11064;47.102;15.452;2023-12-29T11:54:07;8.20;93.90
21805;DHT22;11064;47.102;15.452;2023-12-29T11:56:38;8.30;93.20
21805;DHT22;11064;47.102;15.452;2023-12-29T11:59:20;8.30;93.10
21805;DHT22;11064;47.102;15.452;2023-12-29T12:01:57;8.40;92.70
21805;DHT22;11064;47.102;15.452;2023-12-29T12:04:40;8.50;92.60
21805;DHT22;11064;47.102;15.452;2023-12-29T12:10:28;8.60;92.10
21805;DHT22;11064;47.102;15.452;2023-12-29T12:12:58;8.70;92.50
21805;DHT22;11064;47.102;15.452;2023-12-29T12:17:56;8.80;91.80
21805;DHT22;11064;47.102;15.452;2023-12-29T12:20:22;8.80;91.60
21805;DHT22;11064;47.102;15.452;2023-12-29T12:23:11;8.90;91.80
21805;DHT22;11064;47.102;15.452;2023-12-29T12:25:39;9.00;91.60
21805;DHT22;11064;47.102;15.452;2023-12-29T12:28:06;9.00;91.10
21805;DHT22;11064;47.102;15.452;2023-12-29T12:30:33;9.10;90.80
21805;DHT22;11064;47.102;15.452;2023-12-29T12:33:03;9.10;90.50
21805;DHT22;11064;47.102;15.452;2023-12-29T12:35:30;9.20;90.30
21805;DHT22;11064;47.102;15.452;2023-12-29T12:38:13;9.20;89.90
21805;DHT22;11064;47.102;15.452;2023-12-29T12:40:40;9.20;90.20
21805;DHT22;11064;47.102;15.452;2023-12-29T12:43:07;9.30;90.00
21805;DHT22;11064;47.102;15.452;2023-12-29T12:45:59;9.30;90.00
21805;DHT22;11064;47.102;15.452;2023-12-29T12:48:27;9.40;90.10
21805;DHT22;11064;47.102;15.452;2023-12-29T12:50:54;9.40;89.40
21805;DHT22;11064;47.102;15.452;2023-12-29T12:53:23;9.50;88.90
21805;DHT22;11064;47.102;15.452;2023-12-29T12:55:50;9.50;89.20
21805;DHT22;11064;47.102;15.452;2023-12-29T12:58:20;9.50;88.50
21805;DHT22;11064;47.102;15.452;2023-12-29T13:00:47;9.50;88.90
21805;DHT22;11064;47.102;15.452;2023-12-29T13:03:15;9.40;89.20
21805;DHT22;11064;47.102;15.452;2023-12-29T13:05:41;9.40;89.70
21805;DHT22;11064;47.102;15.452;2023-12-29T13:08:08;9.30;89.80
21805;DHT22;11064;47.102;15.452;2023-12-29T13:10:40;9.30;90.20
21805;DHT22;11064;47.102;15.452;2023-12-29T13:13:05;9.20;90.70
21805;DHT22;11064;47.102;15.452;2023-12-29T13:15:31;9.10;91.00
21805;DHT22;11064;47.102;15.452;2023-12-29T13:17:57;9.10;90.90
21805;DHT22;11064;47.102;15.452;2023-12-29T13:20:23;8.90;91.00
21805;DHT22;11064;47.102;15.452;2023-12-29T13:22:52;8.90;91.10
21805;DHT22;11064;47.102;15.452;2023-12-29T13:25:25;8.90;90.90
21805;DHT22;11064;47.102;15.452;2023-12-29T13:27:53;8.90;91.20
21805;DHT22;11064;47.102;15.452;2023-12-29T13:30:20;8.80;91.30
21805;DHT22;11064;47.102;15.452;2023-12-29T13:32:48;8.70;91.40
21805;DHT22;11064;47.102;15.452;2023-12-29T13:40:39;8.70;91.80
21805;DHT22;11064;47.102;15.452;2023-12-29T13:43:08;8.70;91.70
21805;DHT22;11064;47.102;15.452;2023-12-29T13:45:36;8.60;91.80
21805;DHT22;11064;47.102;15.452;2023-12-29T13:48:04;8.50;92.10
21805;DHT22;11064;47.102;15.452;2023-12-29T13:50:33;8.40;91.90
21805;DHT22;11064;47.102;15.452;2023-12-29T13:52:59;8.40;92.20
21805;DHT22;11064;47.102;15.452;2023-12-29T13:55:25;8.40;92.10
21805;DHT22;11064;47.102;15.452;2023-12-29T13:57:51;8.40;92.10
21805;DHT22;11064;47.102;15.452;2023-12-29T14:00:19;8.20;92.10
21805;DHT22;11064;47.102;15.452;2023-12-29T14:03:10;8.20;92.20
21805;DHT22;11064;47.102;15.452;2023-12-29T14:05:52;8.10;92.40
21805;DHT22;11064;47.102;15.452;2023-12-29T14:08:46;8.10;92.60
21805;DHT22;11064;47.102;15.452;2023-12-29T14:11:11;8.00;92.90
21805;DHT22;11064;47.102;15.452;2023-12-29T14:13:44;8.00;92.50
21805;DHT22;11064;47.102;15.452;2023-12-29T14:16:14;7.90;92.70
21805;DHT22;11064;47.102;15.452;2023-12-29T14:18:53;7.90;92.70
21805;DHT22;11064;47.102;15.452;2023-12-29T14:21:30;7.80;92.50
21805;DHT22;11064;47.102;15.452;2023-12-29T14:24:13;7.80;92.60
21805;DHT22;11064;47.102;15.452;2023-12-29T14:29:13;7.70;92.90
21805;DHT22;11064;47.102;15.452;2023-12-29T14:31:42;7.60;93.20
21805;DHT22;11064;47.102;15.452;2023-12-29T14:34:10;7.60;93.30
21805;DHT22;11064;47.102;15.452;2023-12-29T14:36:37;7.50;93.60
21805;DHT22;11064;47.102;15.452;2023-12-29T14:39:04;7.40;93.90
21805;DHT22;11064;47.102;15.452;2023-12-29T14:41:30;7.30;94.40
21805;DHT22;11064;47.102;15.452;2023-12-29T14:43:56;7.20;94.60
21805;DHT22;11064;47.102;15.452;2023-12-29T14:46:22;7.10;94.90
21805;DHT22;11064;47.102;15.452;2023-12-29T14:48:49;7.00;94.70
21805;DHT22;11064;47.102;15.452;2023-12-29T14:51:15;7.00;94.80
21805;DHT22;11064;47.102;15.452;2023-12-29T14:53:47;6.90;94.80
21805;DHT22;11064;47.102;15.452;2023-12-29T14:56:14;6.80;94.90
21805;DHT22;11064;47.102;15.452;2023-12-29T14:58:40;6.70;95.00
21805;DHT22;11064;47.102;15.452;2023-12-29T15:01:06;6.60;95.10
21805;DHT22;11064;47.102;15.452;2023-12-29T15:03:33;6.50;95.50
21805;DHT22;11064;47.102;15.452;2023-12-29T15:06:00;6.40;95.50
21805;DHT22;11064;47.102;15.452;2023-12-29T15:08:27;6.40;95.60
21805;DHT22;11064;47.102;15.452;2023-12-29T15:10:57;6.40;95.80
21805;DHT22;11064;47.102;15.452;2023-12-29T15:13:24;6.40;95.90
21805;DHT22;11064;47.102;15.452;2023-12-29T15:15:50;6.30;96.00
21805;DHT22;11064;47.102;15.452;2023-12-29T15:18:16;6.30;96.20
21805;DHT22;11064;47.102;15.452;2023-12-29T15:20:42;6.30;96.40
21805;DHT22;11064;47.102;15.452;2023-12-29T15:23:09;6.20;96.50
21805;DHT22;11064;47.102;15.452;2023-12-29T15:25:34;6.10;96.70
21805;DHT22;11064;47.102;15.452;2023-12-29T15:28:00;6.10;96.90
21805;DHT22;11064;47.102;15.452;2023-12-29T15:30:26;5.90;97.10
21805;DHT22;11064;47.102;15.452;2023-12-29T15:32:52;5.80;97.50
21805;DHT22;11064;47.102;15.452;2023-12-29T15:35:18;5.70;98.00
21805;DHT22;11064;47.102;15.452;2023-12-29T15:37:44;5.70;98.10
21805;DHT22;11064;47.102;15.452;2023-12-29T15:40:10;5.70;98.20
21805;DHT22;11064;47.102;15.452;2023-12-29T15:42:36;5.70;98.20
21805;DHT22;11064;47.102;15.452;2023-12-29T15:45:02;5.60;98.30
21805;DHT22;11064;47.102;15.452;2023-12-29T15:47:28;5.50;98.80
21805;DHT22;11064;47.102;15.452;2023-12-29T15:49:53;5.40;99.20
21805;DHT22;11064;47.102;15.452;2023-12-29T15:52:19;5.30;99.60
21805;DHT22;11064;47.102;15.452;2023-12-29T15:54:45;5.20;99.90
21805;DHT22;11064;47.102;15.452;2023-12-29T15:57:11;5.10;99.90
21805;DHT22;11064;47.102;15.452;2023-12-29T15:59:38;5.20;99.90
21805;DHT22;11064;47.102;15.452;2023-12-29T16:02:04;5.30;99.90
21805;DHT22;11064;47.102;15.452;2023-12-29T16:04:30;5.30;99.90
21805;DHT22;11064;47.102;15.452;2023-12-29T16:06:56;5.40;99.90
21805;DHT22;11064;47.102;15.452;2023-12-29T16:09:22;5.30;99.90
21805;DHT22;11064;47.102;15.452;2023-12-29T16:11:48;5.30;99.90
21805;DHT22;11064;47.102;15.452;2023-12-29T16:14:20;5.30;99.90